ADDS METAR Data INFO
IDs: Format: Raw Decoded Include TAF

Data at: 0745 UTC 21 Jul 2018

PARY 210656Z AUTO 26003KT 10SM CLR 21/12 A3020 RMK AO2 SLP250 T02110117
PARY 210556Z AUTO VRB03KT 10SM CLR 22/12 A3020 RMK AO2 SLP248 T02220117 10228 20206 55000
PARY 210456Z AUTO VRB03KT 10SM CLR 22/12 A3019 RMK AO2 SLP248 T02220117
PARY 210356Z AUTO 00000KT 10SM CLR 23/12 A3019 RMK AO2 SLP248 T02280117
PARY 210256Z AUTO VRB04KT 10SM CLR 23/12 A3020 RMK AO2 SLP250 T02280117 56006
PARY 210156Z AUTO VRB04KT 10SM CLR 22/12 A3020 RMK AO2 SLP252 T02220117
PARY 210056Z AUTO VRB04KT 10SM CLR 22/12 A3021 RMK AO2 SLP255 T02170117
PARY 202356Z AUTO 00000KT 10SM CLR 21/11 A3022 RMK AO2 SLP259 T02060111 10206 20150 58008
PARY 202256Z AUTO 36005KT 10SM FEW038 19/11 A3023 RMK AO2 SLP263 T01940111
PARY 202156Z AUTO VRB03KT 10SM FEW031 18/11 A3024 RMK AO2 SLP266 T01780106
PARY 202056Z AUTO VRB05KT 10SM BKN033 17/11 A3024 RMK AO2 SLP268 T01670106 56002
PARY 201956Z AUTO 00000KT 10SM OVC033 16/11 A3024 RMK AO2 SLP268 T01610106
PARY 201856Z AUTO 00000KT 10SM OVC031 15/11 A3024 RMK AO2 SLP269 T01500106
PARY 201756Z AUTO 00000KT 10SM OVC035 15/11 A3025 RMK AO2 SLP270 T01500106 10150 20089 54000
PARY 201656Z AUTO 07006KT 10SM OVC037 13/09 A3025 RMK AO2 SLP272 T01280089
PARY 201556Z AUTO 08003KT 10SM OVC037 12/09 A3025 RMK AO2 SLP271 T01170094
PARY 201456Z AUTO 00000KT 10SM OVC033 11/09 A3025 RMK AO2 SLP272 T01110089 56001
PARY 201356Z AUTO 00000KT 10SM OVC033 11/08 A3025 RMK AO2 SLP273 T01060083
PARY 201256Z AUTO 17005KT 10SM BKN033 09/08 A3025 RMK AO2 SLP273 T00890078
PARY 201156Z AUTO 18004KT 10SM FEW035 09/08 A3025 RMK AO2 SLP275 T00890078 10150 20089 51002
PARY 201056Z AUTO 18003KT 10SM CLR 11/09 A3025 RMK AO2 SLP274 T01060089
PARY 200956Z AUTO 08004KT 10SM CLR 12/09 A3025 RMK AO2 SLP273 T01170089
PARY 200856Z AUTO 08004KT 10SM CLR 12/09 A3025 RMK AO2 SLP272 T01220094 53008
PARY 200756Z AUTO 04003KT 10SM CLR 13/09 A3024 RMK AO2 SLP268 T01330094 401610100
PARY 200656Z AUTO 01003KT 10SM CLR 14/09 A3023 RMK AO2 SLP265 T01390094
PARY 200556Z AUTO VRB03KT 10SM SCT095 15/10 A3022 RMK AO2 SLP263 T01500100 10161 20139 53001
PARY 200456Z AUTO 00000KT 10SM BKN095 15/09 A3022 RMK AO2 SLP262 T01500094
PARY 200356Z AUTO 25003KT 10SM SCT027 BKN100 16/10 A3022 RMK AO2 SLP262 T01610100
PARY 200256Z AUTO 26004KT 10SM FEW025 BKN039 15/09 A3022 RMK AO2 SLP263 T01500094 53001
PARY 200156Z AUTO VRB05KT 10SM FEW027 OVC036 15/10 A3022 RMK AO2 SLP262 T01500100
PARY 200056Z AUTO 26006KT 10SM SCT024 BKN030 OVC036 14/09 A3022 RMK AO2 SLP262 T01440094
PARY 200019Z AUTO VRB04KT 10SM FEW024 OVC033 14/09 A3022 RMK AO2
PARY 192356Z AUTO VRB06KT 10SM BKN026 OVC033 14/09 A3022 RMK AO2 SLP262 T01390089 10144 20117 53003
PARY 192256Z AUTO VRB04KT 10SM SCT022 BKN027 OVC034 14/09 A3021 RMK AO2 SLP260 T01390094
PARY 192252Z AUTO 24006KT 10SM SCT022 OVC034 14/09 A3021 RMK AO2
PARY 192156Z AUTO VRB04KT 10SM OVC026 14/09 A3021 RMK AO2 SLP258 T01390089
PARY 192056Z AUTO 24004KT 10SM BKN023 OVC028 13/08 A3020 RMK AO2 SLP256 T01330083 51007
PARY 192008Z AUTO 24006KT 10SM OVC026 13/08 A3019 RMK AO2
PARY 191956Z AUTO 25005KT 10SM 13/08 A3019 RMK AO2 SLP253 T01280083